createdAt,value
2022-11-26T00:02:16.863Z,49.50
2022-11-26T00:04:44.615Z,49.30
2022-11-26T00:07:12.566Z,49.30
2022-11-26T00:09:40.299Z,49.30
2022-11-26T00:12:17.030Z,49.30
2022-11-26T00:14:44.710Z,49.10
2022-11-26T00:17:13.118Z,49.20
2022-11-26T00:19:40.966Z,49.10
2022-11-26T00:22:11.357Z,49.00
2022-11-26T00:24:39.190Z,49.00
2022-11-26T00:27:07.015Z,49.00
2022-11-26T00:29:36.052Z,48.90
2022-11-26T00:32:03.814Z,48.80
2022-11-26T00:34:31.558Z,48.80
2022-11-26T00:36:59.242Z,48.80
2022-11-26T00:39:26.888Z,48.60
2022-11-26T00:41:54.569Z,48.60
2022-11-26T00:44:23.642Z,48.60
2022-11-26T00:46:52.811Z,48.60
2022-11-26T00:49:20.768Z,48.50
2022-11-26T00:51:48.561Z,48.50
2022-11-26T00:54:17.502Z,48.40
2022-11-26T00:56:45.159Z,48.40
2022-11-26T00:59:13.770Z,48.30
2022-11-26T01:01:41.524Z,48.20
2022-11-26T01:04:10.614Z,48.20
2022-11-26T01:06:39.909Z,48.00
2022-11-26T01:09:07.814Z,48.00
2022-11-26T01:11:35.513Z,47.90
2022-11-26T01:14:03.427Z,47.70
2022-11-26T01:16:32.237Z,47.70
2022-11-26T01:19:00.654Z,47.60
2022-11-26T01:21:30.695Z,47.50
2022-11-26T01:23:58.553Z,47.50
2022-11-26T01:26:27.424Z,47.50
2022-11-26T01:28:55.360Z,47.40
2022-11-26T01:31:24.658Z,47.30
2022-11-26T01:33:52.506Z,47.30
2022-11-26T01:36:26.839Z,47.20
2022-11-26T01:38:56.213Z,47.10
2022-11-26T01:41:45.325Z,47.70
2022-11-26T01:44:17.700Z,46.80
2022-11-26T01:46:45.456Z,46.90
2022-11-26T01:49:17.734Z,46.90
2022-11-26T01:51:45.638Z,46.60
2022-11-26T01:54:14.646Z,46.80
2022-11-26T01:56:43.482Z,46.70
2022-11-26T01:59:12.350Z,46.80
2022-11-26T02:01:40.106Z,46.80
2022-11-26T02:04:13.804Z,46.70
2022-11-26T02:06:42.096Z,46.40
2022-11-26T02:09:10.238Z,46.40
2022-11-26T02:11:40.414Z,46.30
2022-11-26T02:14:10.097Z,46.20
2022-11-26T02:16:59.212Z,46.10
2022-11-26T02:19:59.874Z,45.90
2022-11-26T02:22:39.005Z,45.70
2022-11-26T02:25:08.364Z,45.80
2022-11-26T02:28:09.063Z,45.80
2022-11-26T02:30:38.421Z,45.40
2022-11-26T02:33:07.291Z,45.80
2022-11-26T02:35:37.433Z,45.70
2022-11-26T02:38:06.562Z,45.70
2022-11-26T02:40:34.243Z,45.60
2022-11-26T02:43:02.097Z,45.50
2022-11-26T02:45:31.003Z,45.50
2022-11-26T02:48:01.394Z,45.40
2022-11-26T02:50:30.673Z,45.30
2022-11-26T02:52:58.782Z,45.40
2022-11-26T02:55:27.249Z,45.20
2022-11-26T02:57:54.945Z,45.10
2022-11-26T03:00:22.826Z,45.10
2022-11-26T03:02:51.957Z,45.10
2022-11-26T03:05:21.138Z,45.10
2022-11-26T03:07:50.291Z,45.10
2022-11-26T03:10:20.141Z,45.10
2022-11-26T03:12:48.303Z,45.20
2022-11-26T03:15:16.058Z,45.10
2022-11-26T03:17:43.751Z,45.00
2022-11-26T03:20:11.464Z,45.00
2022-11-26T03:22:40.565Z,45.00
2022-11-26T03:25:09.160Z,45.10
2022-11-26T03:27:36.836Z,45.00
2022-11-26T03:30:04.906Z,45.00
2022-11-26T03:32:32.627Z,44.90
2022-11-26T03:35:00.295Z,44.90
2022-11-26T03:37:27.974Z,44.90
2022-11-26T03:39:56.960Z,45.00
2022-11-26T03:42:24.706Z,44.90
2022-11-26T03:44:52.372Z,45.00
2022-11-26T03:47:20.021Z,45.00
2022-11-26T03:49:47.645Z,45.00
2022-11-26T03:52:15.329Z,44.70
2022-11-26T03:54:42.958Z,44.90
2022-11-26T03:57:12.012Z,44.80
2022-11-26T03:59:39.746Z,44.70
2022-11-26T04:02:07.475Z,44.70
2022-11-26T04:04:35.314Z,44.70
2022-11-26T04:07:03.046Z,44.80
2022-11-26T04:09:30.770Z,44.90
2022-11-26T04:11:58.441Z,44.80
2022-11-26T04:14:27.566Z,45.00
2022-11-26T04:16:55.355Z,44.90
2022-11-26T04:19:23.051Z,45.00
2022-11-26T04:21:50.702Z,44.90
2022-11-26T04:24:18.379Z,44.90
2022-11-26T04:26:46.123Z,44.70
2022-11-26T04:29:13.798Z,44.70
2022-11-26T04:31:42.833Z,44.70
2022-11-26T04:34:10.580Z,44.70
2022-11-26T04:36:39.225Z,44.70
2022-11-26T04:39:06.885Z,44.60
2022-11-26T04:41:34.568Z,44.50
2022-11-26T04:44:02.324Z,44.70
2022-11-26T04:46:30.016Z,44.80
2022-11-26T04:48:59.041Z,44.70
2022-11-26T04:51:26.709Z,44.60
2022-11-26T04:53:55.878Z,44.50
2022-11-26T04:56:34.563Z,44.50
2022-11-26T04:59:02.284Z,44.40
2022-11-26T05:01:30.107Z,44.50
2022-11-26T05:03:59.150Z,44.50
2022-11-26T05:06:26.872Z,44.60
2022-11-26T05:08:54.559Z,44.50
2022-11-26T05:11:22.216Z,44.50
2022-11-26T05:13:49.838Z,44.50
2022-11-26T05:16:17.523Z,44.50
2022-11-26T05:18:45.209Z,44.40
2022-11-26T05:21:14.235Z,44.40
2022-11-26T05:23:41.882Z,44.30
2022-11-26T05:26:09.566Z,44.40
2022-11-26T05:28:37.270Z,44.40
2022-11-26T05:31:05.077Z,44.40
2022-11-26T05:33:32.721Z,44.20
2022-11-26T05:36:00.550Z,44.40
2022-11-26T05:38:29.609Z,44.40
2022-11-26T05:40:57.285Z,44.40
2022-11-26T05:43:24.946Z,44.40
2022-11-26T05:45:52.620Z,44.40
2022-11-26T05:48:20.333Z,44.70
2022-11-26T05:50:51.618Z,44.60
2022-11-26T05:53:22.205Z,44.50
2022-11-26T05:55:51.175Z,44.60
2022-11-26T05:58:18.920Z,44.60
2022-11-26T06:00:47.023Z,44.70
2022-11-26T06:03:19.726Z,44.70
2022-11-26T06:05:47.856Z,44.70
2022-11-26T06:08:15.516Z,44.80
2022-11-26T06:10:43.321Z,44.80
2022-11-26T06:13:12.322Z,44.50
2022-11-26T06:15:39.966Z,44.80
2022-11-26T06:18:07.619Z,44.90
2022-11-26T06:20:35.379Z,44.90
2022-11-26T06:23:03.245Z,44.90
2022-11-26T06:25:31.670Z,44.90
2022-11-26T06:27:59.340Z,45.00
2022-11-26T06:30:28.315Z,45.00
2022-11-26T06:32:56.005Z,45.00
2022-11-26T06:35:23.660Z,44.80
2022-11-26T06:37:51.397Z,44.60
2022-11-26T06:40:20.390Z,44.70
2022-11-26T06:42:51.424Z,44.90
2022-11-26T06:45:19.488Z,44.90
2022-11-26T06:47:48.582Z,44.90
2022-11-26T06:50:16.406Z,44.80
2022-11-26T06:52:44.077Z,44.80
2022-11-26T06:55:11.815Z,44.50
2022-11-26T06:57:39.470Z,45.00
2022-11-26T07:00:08.531Z,44.60
2022-11-26T07:02:36.215Z,45.30
2022-11-26T07:05:05.538Z,45.10
2022-11-26T07:07:33.246Z,44.80
2022-11-26T07:10:00.966Z,45.00
2022-11-26T07:12:28.589Z,44.70
2022-11-26T07:14:56.274Z,44.60
2022-11-26T07:17:23.943Z,44.50
2022-11-26T07:19:51.617Z,44.80
2022-11-26T07:22:20.599Z,44.70
2022-11-26T07:24:48.280Z,44.60
2022-11-26T07:27:15.938Z,44.50
2022-11-26T07:29:43.599Z,44.40
2022-11-26T07:32:11.250Z,44.40
2022-11-26T07:34:39.210Z,44.60
2022-11-26T07:37:07.142Z,44.80
2022-11-26T07:39:36.113Z,44.90
2022-11-26T07:42:03.773Z,44.80
2022-11-26T07:44:31.429Z,44.50
2022-11-26T07:46:59.086Z,44.60
2022-11-26T07:49:26.821Z,44.50
2022-11-26T07:51:54.490Z,44.60
2022-11-26T07:54:22.134Z,44.40
2022-11-26T07:56:51.102Z,44.30
2022-11-26T07:59:18.741Z,44.50
2022-11-26T08:01:46.501Z,44.40
2022-11-26T08:04:14.199Z,45.00
2022-11-26T08:06:41.863Z,44.30
2022-11-26T08:09:09.503Z,44.20
2022-11-26T08:11:37.165Z,44.40
2022-11-26T08:14:07.178Z,44.20
2022-11-26T08:16:35.072Z,44.10
2022-11-26T08:19:04.326Z,44.10
2022-11-26T08:21:32.006Z,44.10
2022-11-26T08:23:59.654Z,44.10
2022-11-26T08:26:34.589Z,44.40
2022-11-26T08:29:06.330Z,44.30
2022-11-26T08:31:34.804Z,44.20
2022-11-26T08:34:03.188Z,44.20
2022-11-26T08:36:31.247Z,44.10
2022-11-26T08:38:59.359Z,44.20
2022-11-26T08:41:27.495Z,44.10
2022-11-26T08:44:10.408Z,44.20
2022-11-26T08:46:39.854Z,44.30
2022-11-26T08:49:08.001Z,44.20
2022-11-26T08:51:35.661Z,44.20
2022-11-26T08:54:03.329Z,44.20
2022-11-26T08:56:30.998Z,44.30
2022-11-26T08:58:58.855Z,44.30
2022-11-26T09:01:27.382Z,44.30
2022-11-26T09:03:57.336Z,44.40
2022-11-26T09:06:26.307Z,44.50
2022-11-26T09:09:11.616Z,44.40
2022-11-26T09:11:40.586Z,44.60
2022-11-26T09:14:08.278Z,44.90
2022-11-26T09:16:36.197Z,44.80
2022-11-26T09:19:06.091Z,44.60
2022-11-26T09:21:34.050Z,44.30
2022-11-26T09:24:01.888Z,44.50
2022-11-26T09:26:30.685Z,44.70
2022-11-26T09:28:58.474Z,44.80
2022-11-26T09:31:26.325Z,45.30
2022-11-26T09:33:55.644Z,44.60
2022-11-26T09:36:24.653Z,44.50
2022-11-26T09:38:54.513Z,44.70
2022-11-26T09:41:39.857Z,44.60
2022-11-26T09:44:23.107Z,44.30
2022-11-26T09:47:11.426Z,45.10
2022-11-26T09:49:44.427Z,45.00
2022-11-26T09:52:13.400Z,44.90
2022-11-26T09:54:41.388Z,45.30
2022-11-26T09:57:15.461Z,44.70
2022-11-26T09:59:43.292Z,44.80
2022-11-26T10:02:12.201Z,45.30
2022-11-26T10:04:40.863Z,46.20
2022-11-26T10:07:15.335Z,46.30
2022-11-26T10:09:50.317Z,46.80
2022-11-26T10:12:26.468Z,47.10
2022-11-26T10:14:57.131Z,48.70
2022-11-26T10:17:41.035Z,49.00
2022-11-26T10:20:27.142Z,49.30
2022-11-26T10:22:58.286Z,49.10
2022-11-26T10:25:27.797Z,49.10
2022-11-26T10:27:55.978Z,49.20
2022-11-26T10:30:24.946Z,49.40
2022-11-26T10:32:52.895Z,49.70
2022-11-26T10:35:21.612Z,49.60
2022-11-26T10:37:49.394Z,49.80
2022-11-26T10:40:25.551Z,50.10
2022-11-26T10:42:58.291Z,50.50
2022-11-26T10:45:27.185Z,50.20
2022-11-26T10:47:54.850Z,50.30
2022-11-26T10:53:20.111Z,51.00
2022-11-26T10:55:49.106Z,50.60
2022-11-26T10:58:17.974Z,50.50
2022-11-26T11:00:47.077Z,50.70
2022-11-26T11:03:17.010Z,51.50
2022-11-26T11:05:44.924Z,51.20
2022-11-26T11:08:15.326Z,51.10
2022-11-26T11:10:54.700Z,51.20
2022-11-26T11:13:23.022Z,51.40
2022-11-26T11:15:50.765Z,51.40
2022-11-26T11:18:20.127Z,51.60
2022-11-26T11:20:53.183Z,51.40
2022-11-26T11:23:34.783Z,51.80
2022-11-26T11:26:15.823Z,51.70
2022-11-26T11:28:48.206Z,51.80
2022-11-26T11:31:17.150Z,51.80
2022-11-26T11:33:44.933Z,52.10
2022-11-26T11:36:21.632Z,52.30
2022-11-26T11:38:50.483Z,53.10
2022-11-26T11:41:31.350Z,51.60
2022-11-26T11:44:01.119Z,52.30
2022-11-26T11:46:45.280Z,52.30
2022-11-26T11:49:17.187Z,52.40
2022-11-26T11:51:47.684Z,51.10
2022-11-26T11:54:18.825Z,51.60
2022-11-26T11:56:50.558Z,51.50
2022-11-26T11:59:37.116Z,50.80
2022-11-26T12:02:32.124Z,49.80
2022-11-26T12:05:07.677Z,49.90
2022-11-26T12:07:39.723Z,49.90
2022-11-26T12:10:14.967Z,50.10
2022-11-26T12:12:45.682Z,49.40
2022-11-26T12:15:16.060Z,50.00
2022-11-26T12:17:46.028Z,50.00
2022-11-26T12:20:17.992Z,50.00
2022-11-26T12:22:47.028Z,49.30
2022-11-26T12:25:20.812Z,49.70
2022-11-26T12:27:52.462Z,50.00
2022-11-26T12:30:22.075Z,49.80
2022-11-26T12:32:52.019Z,49.90
2022-11-26T12:35:26.078Z,49.90
2022-11-26T12:37:53.787Z,49.70
2022-11-26T12:40:29.819Z,49.80
2022-11-26T12:43:01.473Z,45.50
2022-11-26T12:45:42.571Z,45.30
2022-11-26T12:48:16.194Z,43.90
2022-11-26T12:50:45.704Z,44.20
2022-11-26T12:53:16.635Z,44.00
2022-11-26T12:55:46.467Z,44.30
2022-11-26T12:58:16.687Z,45.10
2022-11-26T13:00:44.406Z,44.60
2022-11-26T13:03:15.773Z,44.60
2022-11-26T13:05:51.438Z,45.10
2022-11-26T13:08:26.683Z,45.90
2022-11-26T13:11:08.725Z,46.50
2022-11-26T13:13:42.948Z,46.60
2022-11-26T13:16:15.403Z,46.80
2022-11-26T13:18:44.447Z,47.20
2022-11-26T13:21:24.194Z,46.90
2022-11-26T13:24:02.317Z,47.00
2022-11-26T13:26:40.239Z,47.30
2022-11-26T13:29:30.884Z,47.50
2022-11-26T13:32:12.748Z,47.90
2022-11-26T13:34:51.079Z,47.70
2022-11-26T13:37:29.542Z,47.70
2022-11-26T13:40:37.401Z,48.00
2022-11-26T13:43:30.206Z,48.40
2022-11-26T13:46:05.888Z,48.40
2022-11-26T13:48:36.988Z,48.90
2022-11-26T13:51:07.296Z,49.10
2022-11-26T13:53:36.885Z,48.70
2022-11-26T13:56:05.999Z,48.90
2022-11-26T13:58:36.074Z,49.90
2022-11-26T14:01:30.023Z,50.80
2022-11-26T14:03:57.990Z,51.70
2022-11-26T14:06:27.262Z,51.00
2022-11-26T14:08:55.030Z,51.10
2022-11-26T14:11:59.227Z,50.90
2022-11-26T14:14:34.134Z,51.80
2022-11-26T14:17:20.206Z,51.10
2022-11-26T14:20:05.291Z,50.60
2022-11-26T14:22:33.649Z,49.80
2022-11-26T14:25:02.699Z,49.90
2022-11-26T14:27:32.153Z,50.50
2022-11-26T14:30:14.630Z,50.20
2022-11-26T14:32:46.402Z,50.90
2022-11-26T14:35:18.733Z,52.00
2022-11-26T14:37:51.872Z,52.10
2022-11-26T14:40:22.380Z,52.00
2022-11-26T14:42:50.144Z,51.30
2022-11-26T14:45:19.125Z,50.90
2022-11-26T14:47:49.973Z,51.30
2022-11-26T14:50:18.251Z,51.30
2022-11-26T14:52:45.937Z,50.50
2022-11-26T14:55:17.982Z,50.80
2022-11-26T14:57:46.909Z,50.60
2022-11-26T15:00:23.087Z,50.40
2022-11-26T15:02:52.641Z,50.60
2022-11-26T15:05:22.091Z,51.00
2022-11-26T15:07:58.300Z,50.80
2022-11-26T15:10:26.159Z,50.30
2022-11-26T15:12:53.915Z,51.50
2022-11-26T15:15:23.055Z,51.60
2022-11-26T15:18:17.728Z,51.20
2022-11-26T15:20:48.892Z,49.70
2022-11-26T15:23:18.889Z,50.20
2022-11-26T15:25:49.521Z,51.20
2022-11-26T15:28:17.917Z,51.20
2022-11-26T15:30:54.529Z,50.70
2022-11-26T15:33:23.712Z,50.70
2022-11-26T15:35:56.550Z,51.80
2022-11-26T15:38:24.750Z,51.00
2022-11-26T15:40:53.482Z,50.70
2022-11-26T15:43:23.902Z,50.90
2022-11-26T15:45:51.882Z,51.00
2022-11-26T15:48:27.772Z,51.10
2022-11-26T15:51:00.494Z,51.30
2022-11-26T15:53:29.437Z,51.20
2022-11-26T15:55:57.441Z,51.10
2022-11-26T15:58:27.012Z,51.00
2022-11-26T16:00:55.846Z,50.30
2022-11-26T16:03:43.824Z,52.60
2022-11-26T16:06:31.448Z,52.90
2022-11-26T16:09:02.286Z,51.10
2022-11-26T16:11:31.097Z,52.70
2022-11-26T16:13:58.780Z,51.70
2022-11-26T16:16:26.794Z,52.50
2022-11-26T16:18:55.772Z,51.80
2022-11-26T16:21:24.446Z,51.20
2022-11-26T16:23:54.596Z,52.20
2022-11-26T16:26:22.576Z,52.60
2022-11-26T16:28:50.366Z,52.20
2022-11-26T16:31:18.602Z,52.90
2022-11-26T16:33:46.450Z,52.70
2022-11-26T16:36:22.179Z,51.30
2022-11-26T16:38:49.962Z,50.80
2022-11-26T16:41:19.847Z,51.30
2022-11-26T16:43:47.730Z,51.00
2022-11-26T16:46:17.064Z,50.40
2022-11-26T16:48:45.512Z,50.80
2022-11-26T16:51:13.227Z,50.50
2022-11-26T16:53:40.990Z,51.70
2022-11-26T16:58:49.557Z,52.20
2022-11-26T17:01:17.315Z,52.30
2022-11-26T17:03:45.050Z,52.40
2022-11-26T17:06:14.307Z,52.50
2022-11-26T17:08:46.512Z,52.60
2022-11-26T17:11:17.357Z,52.90
2022-11-26T17:13:45.034Z,53.00
2022-11-26T17:16:14.680Z,53.30
2022-11-26T17:18:42.497Z,53.40
2022-11-26T17:21:10.191Z,53.30
2022-11-26T17:23:37.910Z,53.40
2022-11-26T17:26:12.055Z,53.50
2022-11-26T17:28:39.749Z,53.50
2022-11-26T17:31:07.572Z,53.30
2022-11-26T17:33:36.644Z,53.30
2022-11-26T17:36:04.771Z,53.30
2022-11-26T17:38:32.551Z,53.30
2022-11-26T17:41:00.302Z,53.10
2022-11-26T17:43:28.031Z,53.00
2022-11-26T17:45:55.832Z,52.90
2022-11-26T17:48:26.680Z,52.70
2022-11-26T17:50:56.043Z,52.70
2022-11-26T17:53:23.779Z,52.40
2022-11-26T17:55:51.499Z,52.40
2022-11-26T17:58:19.201Z,52.00
2022-11-26T18:00:46.909Z,52.20
2022-11-26T18:03:14.608Z,52.10
2022-11-26T18:05:42.609Z,52.00
2022-11-26T18:08:11.829Z,52.00
2022-11-26T18:10:40.313Z,51.80
2022-11-26T18:13:08.078Z,51.70
2022-11-26T18:15:35.870Z,51.80
2022-11-26T18:18:04.418Z,51.70
2022-11-26T18:20:32.178Z,51.60
2022-11-26T18:23:00.980Z,51.70
2022-11-26T18:25:30.383Z,51.50
2022-11-26T18:27:58.099Z,51.30
2022-11-26T18:30:25.849Z,51.10
2022-11-26T18:32:53.597Z,50.90
2022-11-26T18:35:22.782Z,50.90
2022-11-26T18:37:51.078Z,50.70
2022-11-26T18:40:18.968Z,50.60
2022-11-26T18:42:52.270Z,50.90
2022-11-26T18:45:20.071Z,50.60
2022-11-26T18:47:47.803Z,50.50
2022-11-26T18:50:15.506Z,50.70
2022-11-26T18:52:43.240Z,50.60
2022-11-26T18:55:10.971Z,50.60
2022-11-26T18:57:38.674Z,50.60
2022-11-26T19:00:10.789Z,50.30
2022-11-26T19:02:38.591Z,51.00
2022-11-26T19:05:07.909Z,50.70
2022-11-26T19:07:35.627Z,50.60
2022-11-26T19:10:03.560Z,50.40
2022-11-26T19:12:31.472Z,50.70
2022-11-26T19:14:59.186Z,50.90
2022-11-26T19:17:28.235Z,50.70
2022-11-26T19:19:55.889Z,50.60
2022-11-26T19:22:23.660Z,50.50
2022-11-26T19:24:51.389Z,50.30
2022-11-26T19:27:19.078Z,50.40
2022-11-26T19:29:46.794Z,50.50
2022-11-26T19:32:14.482Z,50.20
2022-11-26T19:34:43.493Z,50.10
2022-11-26T19:37:11.225Z,49.80
2022-11-26T19:39:39.433Z,50.00
2022-11-26T19:42:07.389Z,50.00
2022-11-26T19:44:35.242Z,50.20
2022-11-26T19:47:03.016Z,49.70
2022-11-26T19:49:30.718Z,49.50
2022-11-26T19:51:59.863Z,49.70
2022-11-26T19:54:27.573Z,49.40
2022-11-26T19:56:55.387Z,49.30
2022-11-26T19:59:23.139Z,49.00
2022-11-26T20:01:50.958Z,49.30
2022-11-26T20:04:19.479Z,48.90
2022-11-26T20:06:47.389Z,48.70
2022-11-26T20:09:16.437Z,48.70
2022-11-26T20:11:44.191Z,48.90
2022-11-26T20:14:12.010Z,48.50
2022-11-26T20:16:41.032Z,48.50
2022-11-26T20:19:09.023Z,48.60
2022-11-26T20:21:36.967Z,48.30
2022-11-26T20:24:07.960Z,48.50
2022-11-26T20:26:37.710Z,48.30
2022-11-26T20:29:06.936Z,48.20
2022-11-26T20:31:35.227Z,48.10
2022-11-26T20:34:03.220Z,47.80
2022-11-26T20:36:30.924Z,47.70
2022-11-26T20:39:00.196Z,47.60
2022-11-26T20:41:28.153Z,47.60
2022-11-26T20:43:59.505Z,47.20
2022-11-26T20:46:27.974Z,47.30
2022-11-26T20:48:56.356Z,46.90
2022-11-26T20:51:24.364Z,46.80
2022-11-26T20:53:52.529Z,46.70
2022-11-26T20:56:20.973Z,46.60
2022-11-26T20:58:48.679Z,46.20
2022-11-26T21:01:18.527Z,46.30
2022-11-26T21:03:46.529Z,46.40
2022-11-26T21:06:14.603Z,46.40
2022-11-26T21:08:42.491Z,46.40
2022-11-26T21:11:10.514Z,46.60
2022-11-26T21:13:38.652Z,46.70
2022-11-26T21:16:07.730Z,46.70
2022-11-26T21:18:36.885Z,46.40
2022-11-26T21:21:08.973Z,46.20
2022-11-26T21:23:38.106Z,46.30
2022-11-26T21:26:07.019Z,46.00
2022-11-26T21:28:34.722Z,46.00
2022-11-26T21:31:05.920Z,45.90
2022-11-26T21:33:33.748Z,45.90
2022-11-26T21:36:07.686Z,45.90
2022-11-26T21:38:35.559Z,45.30
2022-11-26T21:41:06.133Z,44.20
2022-11-26T21:43:33.994Z,44.50
2022-11-26T21:46:03.530Z,44.10
2022-11-26T21:48:31.483Z,44.20
2022-11-26T21:50:59.343Z,44.00
2022-11-26T21:53:28.467Z,44.50
2022-11-26T21:55:56.234Z,44.30
2022-11-26T21:58:23.973Z,44.20
2022-11-26T22:00:51.667Z,44.00
2022-11-26T22:03:19.420Z,43.60
2022-11-26T22:05:47.166Z,43.80
2022-11-26T22:08:15.047Z,43.70
2022-11-26T22:10:44.098Z,43.70
2022-11-26T22:13:11.867Z,44.10
2022-11-26T22:15:42.252Z,43.90
2022-11-26T22:18:09.963Z,43.60
2022-11-26T22:20:39.589Z,43.60
2022-11-26T22:23:07.284Z,43.50
2022-11-26T22:25:35.135Z,43.40
2022-11-26T22:28:04.296Z,43.50
2022-11-26T22:30:32.049Z,43.20
2022-11-26T22:33:01.430Z,43.40
2022-11-26T22:35:29.142Z,43.50
2022-11-26T22:37:57.198Z,43.10
2022-11-26T22:40:24.848Z,43.10
2022-11-26T22:42:55.029Z,43.00
2022-11-26T22:45:24.377Z,42.70
2022-11-26T22:47:52.970Z,42.80
2022-11-26T22:50:20.841Z,42.80
2022-11-26T22:52:48.665Z,42.30
2022-11-26T22:55:16.488Z,42.50
2022-11-26T22:57:44.210Z,42.70
2022-11-26T23:00:15.021Z,42.60
2022-11-26T23:02:44.264Z,42.40
2022-11-26T23:05:12.353Z,42.60
2022-11-26T23:07:40.082Z,42.50
2022-11-26T23:10:08.641Z,42.70
2022-11-26T23:12:36.297Z,42.60
2022-11-26T23:15:04.092Z,41.90
2022-11-26T23:17:31.747Z,42.20
2022-11-26T23:20:00.763Z,41.70
2022-11-26T23:22:28.422Z,42.10
2022-11-26T23:24:56.117Z,42.00
2022-11-26T23:27:23.778Z,41.80
2022-11-26T23:29:51.440Z,42.30
2022-11-26T23:32:19.100Z,42.10
2022-11-26T23:34:48.273Z,42.00
2022-11-26T23:37:17.283Z,42.40
2022-11-26T23:39:44.939Z,42.20
2022-11-26T23:42:12.599Z,42.10
2022-11-26T23:44:40.229Z,42.30
2022-11-26T23:47:07.872Z,42.30
2022-11-26T23:49:35.513Z,42.40
2022-11-26T23:52:03.148Z,42.50
2022-11-26T23:54:32.113Z,42.40
2022-11-26T23:56:59.746Z,42.40
2022-11-26T23:59:27.422Z,42.40
